Time;durP1;ratioP1;P1;durP2;ratioP2;P2;SDS_P1;SDS_P2;PMS_P1;PMS_P2;Temp;Humidity;BMP_temperature;BMP_pressure;BME280_temperature;BME280_humidity;BME280_pressure;Samples;Min_cycle;Max_cycle;Signal;HPM_P1;HPM_P2
2022/02/20 00:00:47;;;;;;;1.23;1.07;;;4.60;99.90;;;;;;5011791;28;20188;-70
2022/02/20 00:03:13;;;;;;;1.30;1.10;;;4.60;99.90;;;;;;5011562;28;20172;-69
2022/02/20 00:05:38;;;;;;;1.43;1.10;;;4.50;99.90;;;;;;5011610;28;20243;-68
2022/02/20 00:08:04;;;;;;;1.30;1.20;;;4.50;99.90;;;;;;5011421;28;20196;-70
2022/02/20 00:10:30;;;;;;;1.10;0.90;;;4.40;99.90;;;;;;5014466;28;20670;-69
2022/02/20 00:12:57;;;;;;;1.20;1.10;;;4.40;99.90;;;;;;5015324;28;20406;-69
2022/02/20 00:15:23;;;;;;;0.67;0.67;;;4.40;99.90;;;;;;5015293;28;20490;-69
2022/02/20 00:17:50;;;;;;;1.00;0.90;;;4.30;99.90;;;;;;5015153;28;20450;-69
2022/02/20 00:20:17;;;;;;;1.07;0.80;;;4.30;99.90;;;;;;5015078;28;20458;-69
2022/02/20 00:22:43;;;;;;;0.80;0.80;;;4.30;99.90;;;;;;5014909;28;20415;-69
2022/02/20 00:25:09;;;;;;;1.20;1.10;;;4.30;99.90;;;;;;5014885;28;20414;-69
2022/02/20 00:27:34;;;;;;;1.97;1.23;;;4.30;99.90;;;;;;5014870;28;20201;-69
2022/02/20 00:29:59;;;;;;;0.80;0.80;;;4.30;99.90;;;;;;5036802;22;20224;-68
2022/02/20 00:32:25;;;;;;;2.50;1.30;;;4.30;99.90;;;;;;5014849;28;20543;-68
2022/02/20 00:34:51;;;;;;;1.83;1.60;;;4.30;99.90;;;;;;5015040;28;20251;-68
2022/02/20 00:37:17;;;;;;;1.47;1.00;;;4.30;99.90;;;;;;5015074;28;20172;-68
2022/02/20 00:39:42;;;;;;;1.20;1.10;;;4.30;99.90;;;;;;5015198;28;20638;-68
2022/02/20 00:42:07;;;;;;;0.90;0.80;;;4.30;99.90;;;;;;5015232;28;20164;-68
2022/02/20 00:44:33;;;;;;;1.13;0.90;;;4.30;99.90;;;;;;5015165;28;20169;-68
2022/02/20 00:46:58;;;;;;;1.97;1.00;;;4.30;99.90;;;;;;5015130;28;20173;-68
2022/02/20 00:49:24;;;;;;;1.53;1.10;;;4.20;99.90;;;;;;5015468;28;20164;-69
2022/02/20 00:51:49;;;;;;;0.80;0.80;;;4.20;99.90;;;;;;5015359;28;20180;-69
2022/02/20 00:54:15;;;;;;;1.00;0.80;;;4.20;99.90;;;;;;5018455;28;20663;-69
2022/02/20 00:56:40;;;;;;;0.90;0.90;;;4.20;99.90;;;;;;5019409;28;20263;-69
2022/02/20 00:59:06;;;;;;;1.40;1.30;;;4.10;99.90;;;;;;5018294;28;20215;-66
2022/02/20 01:01:32;;;;;;;1.13;1.13;;;4.00;99.90;;;;;;5014565;28;20251;-67
2022/02/20 01:03:59;;;;;;;3.90;1.60;;;4.00;99.90;;;;;;5014233;28;20498;-66
2022/02/20 01:06:25;;;;;;;1.00;0.90;;;3.90;99.90;;;;;;5014661;28;20410;-67
2022/02/20 01:08:51;;;;;;;0.90;0.90;;;3.90;99.90;;;;;;5014528;28;20937;-67
2022/02/20 01:11:17;;;;;;;1.63;1.17;;;3.90;99.90;;;;;;5014265;28;20419;-67
2022/02/20 01:13:44;;;;;;;3.47;1.40;;;3.80;99.90;;;;;;5014189;28;20176;-67
2022/02/20 01:16:10;;;;;;;2.50;1.00;;;3.80;99.90;;;;;;5014107;28;20460;-67
2022/02/20 01:18:35;;;;;;;1.27;0.73;;;3.80;99.90;;;;;;5014635;28;21070;-67
2022/02/20 01:21:01;;;;;;;0.80;0.80;;;3.80;99.90;;;;;;5013529;28;20431;-68
2022/02/20 01:23:26;;;;;;;1.47;1.10;;;3.80;99.90;;;;;;5014187;28;20556;-68
2022/02/20 01:25:52;;;;;;;1.00;0.87;;;3.80;99.90;;;;;;5013914;28;20172;-69
2022/02/20 01:28:18;;;;;;;0.80;0.80;;;3.70;99.90;;;;;;5013898;28;20192;-68
2022/02/20 01:30:44;;;;;;;0.77;0.77;;;3.70;99.90;;;;;;5013845;28;20200;-69
2022/02/20 01:33:09;;;;;;;1.20;1.10;;;3.60;99.90;;;;;;5014019;28;20403;-69
2022/02/20 01:35:35;;;;;;;1.60;1.50;;;3.60;99.90;;;;;;5013752;28;20176;-69
2022/02/20 01:38:00;;;;;;;3.37;1.50;;;3.50;99.90;;;;;;5013919;28;20602;-69
2022/02/20 01:40:30;;;;;;;4.60;1.73;;;3.50;99.90;;;;;;5013758;28;20674;-68
2022/02/20 01:42:59;;;;;;;1.30;1.20;;;3.50;99.90;;;;;;5013654;28;20172;-68
2022/02/20 01:45:24;;;;;;;1.17;1.07;;;3.60;99.90;;;;;;5013591;28;20490;-69
2022/02/20 01:47:50;;;;;;;1.37;1.27;;;3.60;99.90;;;;;;5013460;28;20557;-68
2022/02/20 01:50:16;;;;;;;0.90;0.90;;;3.60;99.90;;;;;;5013261;28;20238;-68
2022/02/20 01:52:42;;;;;;;1.80;1.00;;;3.50;99.90;;;;;;5013404;28;20161;-68
2022/02/20 01:55:08;;;;;;;1.40;0.93;;;3.50;99.90;;;;;;5013380;28;20407;-68
2022/02/20 01:57:37;;;;;;;1.20;1.10;;;3.40;99.90;;;;;;5013308;28;20411;-68
2022/02/20 02:00:07;;;;;;;2.60;1.43;;;3.40;99.90;;;;;;5013297;28;20427;-68
2022/02/20 02:02:33;;;;;;;1.33;1.23;;;3.40;99.90;;;;;;5013074;28;20415;-68
2022/02/20 02:04:58;;;;;;;2.40;0.90;;;3.30;99.90;;;;;;5013145;28;20460;-66
2022/02/20 02:07:26;;;;;;;0.97;0.97;;;3.30;99.90;;;;;;5013398;28;20773;-66
2022/02/20 02:09:51;;;;;;;2.80;1.37;;;3.30;99.90;;;;;;5013099;28;20207;-67
2022/02/20 02:12:17;;;;;;;2.13;1.37;;;3.30;99.90;;;;;;5013103;28;20403;-66
2022/02/20 02:15:03;;;;;;;1.10;1.03;;;3.30;99.90;;;;;;5012980;28;20160;-67
2022/02/20 02:17:30;;;;;;;1.17;1.07;;;3.30;99.90;;;;;;5013478;28;20178;-67
2022/02/20 02:19:55;;;;;;;1.00;0.90;;;3.20;99.90;;;;;;5013335;28;20435;-67
2022/02/20 02:22:22;;;;;;;0.80;0.80;;;3.20;99.90;;;;;;5013244;28;20411;-66
2022/02/20 02:24:49;;;;;;;1.43;1.30;;;3.20;99.90;;;;;;5012746;28;20924;-66
2022/02/20 02:27:15;;;;;;;1.50;1.40;;;3.20;99.90;;;;;;5011359;28;20403;-66
2022/02/20 02:29:42;;;;;;;2.27;2.07;;;3.10;99.90;;;;;;4994515;28;20451;-66
2022/02/20 02:32:08;;;;;;;1.00;0.90;;;3.10;99.90;;;;;;5012256;28;20760;-66
2022/02/20 02:34:33;;;;;;;1.60;1.50;;;3.00;99.90;;;;;;5011671;28;20400;-66
2022/02/20 02:36:59;;;;;;;1.20;1.10;;;3.00;99.90;;;;;;5012456;28;20403;-66
2022/02/20 02:39:24;;;;;;;1.53;1.43;;;3.00;99.90;;;;;;5012738;28;20515;-66
2022/02/20 02:41:50;;;;;;;2.10;1.37;;;3.00;99.90;;;;;;5012118;28;20172;-66
2022/02/20 02:44:15;;;;;;;1.57;1.47;;;3.00;99.90;;;;;;5012276;28;20172;-66
2022/02/20 02:46:41;;;;;;;1.10;1.10;;;3.10;99.90;;;;;;5012233;28;20250;-66
2022/02/20 02:49:07;;;;;;;1.27;1.17;;;3.10;99.90;;;;;;5012171;28;20286;-66
2022/02/20 02:51:32;;;;;;;1.40;1.30;;;3.00;99.90;;;;;;5012362;28;20219;-68
2022/02/20 02:53:58;;;;;;;3.40;1.03;;;3.00;99.90;;;;;;5012448;28;20414;-67
2022/02/20 02:56:24;;;;;;;2.47;1.63;;;3.10;99.90;;;;;;5012280;28;20734;-67
2022/02/20 02:58:50;;;;;;;6.23;1.40;;;3.10;99.90;;;;;;5012274;28;20172;-67
2022/02/20 03:01:16;;;;;;;0.80;0.80;;;3.00;99.90;;;;;;5012281;28;20926;-67
2022/02/20 03:03:41;;;;;;;1.97;1.77;;;3.10;99.90;;;;;;5012134;28;20419;-67
2022/02/20 03:06:09;;;;;;;1.00;1.00;;;3.00;99.90;;;;;;5012154;28;20230;-67
2022/02/20 03:08:34;;;;;;;1.23;1.13;;;3.10;99.90;;;;;;5012081;28;20250;-67
2022/02/20 03:11:00;;;;;;;1.07;0.97;;;3.10;99.90;;;;;;5012010;28;20459;-67
2022/02/20 03:13:26;;;;;;;1.43;1.23;;;3.00;99.90;;;;;;5012266;28;20494;-68
2022/02/20 03:15:52;;;;;;;0.80;0.80;;;3.10;99.90;;;;;;5011951;28;20238;-67
2022/02/20 03:18:17;;;;;;;1.77;1.27;;;3.10;99.90;;;;;;5012099;28;20165;-68
2022/02/20 03:20:43;;;;;;;1.17;1.07;;;3.10;99.90;;;;;;5011963;28;20431;-68
2022/02/20 03:23:09;;;;;;;3.33;1.57;;;3.10;99.90;;;;;;5012547;28;20176;-68
2022/02/20 03:25:34;;;;;;;1.30;1.20;;;3.00;99.90;;;;;;5012065;28;20164;-67
2022/02/20 03:28:00;;;;;;;1.10;1.10;;;3.00;99.90;;;;;;5012266;28;20570;-66
2022/02/20 03:30:25;;;;;;;1.27;1.17;;;3.00;99.90;;;;;;5012177;28;20670;-68
2022/02/20 03:32:51;;;;;;;0.90;0.90;;;3.00;99.90;;;;;;5012081;28;20263;-67
2022/02/20 03:35:16;;;;;;;1.00;1.00;;;3.00;99.90;;;;;;5012255;28;20191;-66
2022/02/20 03:37:42;;;;;;;4.73;1.30;;;3.00;99.90;;;;;;5011861;28;20638;-66
2022/02/20 03:40:08;;;;;;;3.10;1.00;;;3.00;99.90;;;;;;5011839;28;20192;-67
2022/02/20 03:42:33;;;;;;;0.80;0.80;;;3.00;99.90;;;;;;5011945;28;20231;-67
2022/02/20 03:44:59;;;;;;;1.50;1.40;;;3.00;99.90;;;;;;5013954;28;20411;-66
2022/02/20 03:47:25;;;;;;;0.80;0.80;;;3.10;99.90;;;;;;5015950;28;20227;-66
2022/02/20 03:49:50;;;;;;;0.87;0.87;;;3.00;99.90;;;;;;5015743;28;20188;-66
2022/02/20 03:52:15;;;;;;;1.40;1.00;;;3.00;99.90;;;;;;5015583;28;20164;-66
2022/02/20 03:54:41;;;;;;;1.20;1.10;;;3.00;99.90;;;;;;5015526;28;20565;-67
2022/02/20 03:57:06;;;;;;;2.00;1.30;;;3.10;99.90;;;;;;5015619;28;20165;-67
2022/02/20 03:59:32;;;;;;;1.20;1.10;;;3.10;99.90;;;;;;5015484;28;20253;-68
2022/02/20 04:01:57;;;;;;;1.37;1.03;;;3.00;99.90;;;;;;5015439;28;20169;-67
2022/02/20 04:04:23;;;;;;;4.10;1.57;;;3.10;99.90;;;;;;5015589;28;20168;-68
2022/02/20 04:06:48;;;;;;;1.50;1.40;;;3.10;99.90;;;;;;5015256;28;20307;-67
2022/02/20 04:09:14;;;;;;;1.63;1.53;;;3.10;99.90;;;;;;5014985;28;20200;-68
2022/02/20 04:11:39;;;;;;;1.20;1.17;;;3.10;99.90;;;;;;5015267;28;20250;-68
2022/02/20 04:14:05;;;;;;;0.80;0.80;;;3.00;99.90;;;;;;5015283;28;20645;-68
2022/02/20 04:16:30;;;;;;;1.30;1.20;;;3.00;99.90;;;;;;5015182;28;20231;-68
2022/02/20 04:18:57;;;;;;;2.27;1.87;;;3.00;99.90;;;;;;5015150;28;20182;-68
2022/02/20 04:21:23;;;;;;;1.13;1.13;;;3.00;99.90;;;;;;5015126;28;20235;-68
2022/02/20 04:23:48;;;;;;;1.23;1.13;;;3.10;99.90;;;;;;5014884;28;20407;-68
2022/02/20 04:26:15;;;;;;;1.93;1.57;;;3.00;99.90;;;;;;5015152;28;20591;-68
2022/02/20 04:28:40;;;;;;;1.13;1.03;;;3.10;99.90;;;;;;5015004;28;20200;-67
2022/02/20 04:31:06;;;;;;;1.00;1.00;;;3.10;99.90;;;;;;5015102;28;20443;-67
2022/02/20 04:33:31;;;;;;;0.90;0.90;;;3.10;99.90;;;;;;5014922;28;20255;-67
2022/02/20 04:35:57;;;;;;;0.90;0.80;;;3.10;99.90;;;;;;5014806;28;20160;-67
2022/02/20 04:38:22;;;;;;;1.00;1.00;;;3.20;99.90;;;;;;5014760;28;20177;-67
2022/02/20 04:40:48;;;;;;;1.10;0.80;;;3.20;99.90;;;;;;5015110;28;20246;-67
2022/02/20 04:43:13;;;;;;;1.13;1.10;;;3.20;99.90;;;;;;5014971;28;20546;-68
2022/02/20 04:45:39;;;;;;;0.90;0.90;;;3.20;99.90;;;;;;5014819;28;20179;-68
2022/02/20 04:48:04;;;;;;;0.90;0.70;;;3.20;99.90;;;;;;5014918;28;20579;-68
2022/02/20 04:50:30;;;;;;;1.10;1.10;;;3.20;99.90;;;;;;5014665;28;20195;-68
2022/02/20 04:52:55;;;;;;;0.80;0.80;;;3.20;99.90;;;;;;5014306;28;20271;-67
2022/02/20 04:55:21;;;;;;;3.17;1.10;;;3.20;99.90;;;;;;5014181;28;20161;-68
2022/02/20 04:57:46;;;;;;;1.30;1.20;;;3.20;99.90;;;;;;5013779;28;20290;-68
2022/02/20 05:00:12;;;;;;;1.30;1.20;;;3.30;99.90;;;;;;5014528;28;20680;-68
2022/02/20 05:02:38;;;;;;;0.87;0.83;;;3.30;99.90;;;;;;5014373;28;20178;-68
2022/02/20 05:05:04;;;;;;;1.17;1.07;;;3.30;99.90;;;;;;5014326;28;20490;-67
2022/02/20 05:07:29;;;;;;;0.80;0.80;;;3.30;99.90;;;;;;5014091;28;20196;-67
2022/02/20 05:09:55;;;;;;;1.20;1.10;;;3.40;99.90;;;;;;5014143;28;20771;-67
2022/02/20 05:12:21;;;;;;;2.27;2.00;;;3.40;99.90;;;;;;5014180;28;20173;-67
2022/02/20 05:14:46;;;;;;;1.90;1.40;;;3.40;99.90;;;;;;5014077;28;20411;-67
2022/02/20 05:17:12;;;;;;;0.97;0.97;;;3.40;99.90;;;;;;5014225;28;20169;-67
2022/02/20 05:19:38;;;;;;;1.77;1.13;;;3.40;99.90;;;;;;5014052;28;20219;-67
2022/02/20 05:22:04;;;;;;;1.63;1.53;;;3.40;99.90;;;;;;5013858;28;20535;-67
2022/02/20 05:24:30;;;;;;;1.17;1.07;;;3.50;99.90;;;;;;5013857;28;20425;-67
2022/02/20 05:26:55;;;;;;;1.17;1.07;;;3.50;99.90;;;;;;5014073;28;20168;-67
2022/02/20 05:29:21;;;;;;;2.30;1.90;;;3.50;99.90;;;;;;5013597;28;20546;-67
2022/02/20 05:31:46;;;;;;;1.30;1.20;;;3.50;99.90;;;;;;5013701;28;20180;-67
2022/02/20 05:34:12;;;;;;;1.93;1.70;;;3.50;99.90;;;;;;5013777;28;20255;-67
2022/02/20 05:36:37;;;;;;;2.83;2.10;;;3.50;99.90;;;;;;5013709;28;20251;-67
2022/02/20 05:39:03;;;;;;;2.13;1.93;;;3.50;99.90;;;;;;5013820;28;20523;-68
2022/02/20 05:41:28;;;;;;;3.40;1.70;;;3.60;99.90;;;;;;5013802;28;20542;-68
2022/02/20 05:43:54;;;;;;;3.60;3.20;;;3.60;99.90;;;;;;5013817;28;20627;-68
2022/02/20 05:46:19;;;;;;;4.10;2.83;;;3.60;99.90;;;;;;5013676;28;20195;-68
2022/02/20 05:48:45;;;;;;;1.70;1.60;;;3.60;99.90;;;;;;5013545;28;20192;-68
2022/02/20 05:51:10;;;;;;;2.63;2.43;;;3.60;99.90;;;;;;5013459;28;20235;-68
2022/02/20 05:53:36;;;;;;;1.87;1.77;;;3.60;99.90;;;;;;5013697;28;20184;-67
2022/02/20 05:56:01;;;;;;;2.73;1.60;;;3.60;99.90;;;;;;5013267;28;20169;-67
2022/02/20 05:58:27;;;;;;;2.10;2.00;;;3.60;99.90;;;;;;5013703;28;20222;-68
2022/02/20 06:00:52;;;;;;;2.60;2.20;;;3.60;99.90;;;;;;5013468;28;20208;-67
2022/02/20 06:03:18;;;;;;;1.30;1.20;;;3.60;99.90;;;;;;5013746;28;20548;-67
2022/02/20 06:05:43;;;;;;;1.03;1.03;;;3.60;99.90;;;;;;5013079;28;20192;-67
2022/02/20 06:08:09;;;;;;;1.47;1.37;;;3.60;99.90;;;;;;5012829;28;20208;-67
2022/02/20 06:10:36;;;;;;;2.90;2.70;;;3.60;99.90;;;;;;5013189;28;20278;-67
2022/02/20 06:13:01;;;;;;;1.50;1.40;;;3.60;99.90;;;;;;5013242;28;20400;-67
2022/02/20 06:15:27;;;;;;;1.20;1.10;;;3.60;99.90;;;;;;5012940;28;20940;-67
2022/02/20 06:17:52;;;;;;;1.37;1.27;;;3.60;99.90;;;;;;5013118;28;20173;-67
2022/02/20 06:20:18;;;;;;;1.50;1.40;;;3.60;99.90;;;;;;5012869;28;20192;-67
2022/02/20 06:22:43;;;;;;;2.40;2.10;;;3.60;99.90;;;;;;5012742;28;20263;-67
2022/02/20 06:25:09;;;;;;;1.83;1.53;;;3.60;99.90;;;;;;5012649;28;20179;-67
2022/02/20 06:27:35;;;;;;;1.30;1.20;;;3.60;99.90;;;;;;5012754;28;20204;-68
2022/02/20 06:30:01;;;;;;;1.47;1.37;;;3.60;99.90;;;;;;4995548;28;20600;-67
2022/02/20 06:32:26;;;;;;;1.20;1.10;;;3.60;99.90;;;;;;5012583;28;20418;-67
2022/02/20 06:34:52;;;;;;;2.03;1.83;;;3.60;99.90;;;;;;5012562;28;20168;-67
2022/02/20 06:37:17;;;;;;;1.70;1.60;;;3.60;99.90;;;;;;5012561;28;20678;-67
2022/02/20 06:39:44;;;;;;;2.17;1.80;;;3.60;99.90;;;;;;5012386;28;20573;-67
2022/02/20 06:42:14;;;;;;;2.10;1.40;;;3.60;99.90;;;;;;5012502;28;20582;-67
2022/02/20 06:44:41;;;;;;;0.97;0.90;;;3.60;99.90;;;;;;5012274;28;20435;-67
2022/02/20 06:47:07;;;;;;;1.90;1.33;;;3.60;99.90;;;;;;5012413;28;20461;-67
2022/02/20 06:49:32;;;;;;;1.53;1.43;;;3.70;99.90;;;;;;5012183;28;20454;-67
2022/02/20 06:51:58;;;;;;;1.17;1.00;;;3.70;99.90;;;;;;5012558;28;20253;-67
2022/02/20 06:54:27;;;;;;;1.60;1.50;;;3.70;99.90;;;;;;5012283;28;20642;-67
2022/02/20 06:56:56;;;;;;;1.37;1.27;;;3.70;99.90;;;;;;5012549;28;20172;-67
2022/02/20 06:59:23;;;;;;;2.57;1.23;;;3.70;99.90;;;;;;5012397;28;20915;-67
2022/02/20 07:01:49;;;;;;;2.23;2.03;;;3.80;99.90;;;;;;5012406;28;20438;-67
2022/02/20 07:04:15;;;;;;;1.33;1.23;;;3.80;99.90;;;;;;5012155;28;20506;-67
2022/02/20 07:06:42;;;;;;;1.83;1.67;;;3.90;99.90;;;;;;5012287;28;20650;-67
2022/02/20 07:09:09;;;;;;;1.63;1.53;;;4.00;99.90;;;;;;5012136;28;20929;-67
2022/02/20 07:11:35;;;;;;;2.00;1.73;;;3.90;99.90;;;;;;5012405;28;20406;-67
2022/02/20 07:14:01;;;;;;;1.17;1.07;;;3.90;99.90;;;;;;5012031;28;20399;-67
2022/02/20 07:16:26;;;;;;;1.20;1.10;;;3.90;99.90;;;;;;5011889;28;20419;-67
2022/02/20 07:18:53;;;;;;;1.80;1.70;;;3.90;99.90;;;;;;5011135;28;20180;-67
2022/02/20 07:21:18;;;;;;;2.40;1.37;;;4.00;99.90;;;;;;5012202;28;20285;-67
2022/02/20 07:23:44;;;;;;;2.00;1.80;;;3.90;99.90;;;;;;5011974;28;20486;-67
2022/02/20 07:26:09;;;;;;;1.43;1.33;;;3.90;99.90;;;;;;5011914;28;20651;-67
2022/02/20 07:28:35;;;;;;;1.60;1.50;;;3.90;99.90;;;;;;5011834;28;20658;-67
2022/02/20 07:31:00;;;;;;;2.43;2.23;;;4.00;99.90;;;;;;5011673;28;20299;-67
2022/02/20 07:33:26;;;;;;;3.07;2.10;;;4.10;99.90;;;;;;5011917;28;20230;-67
2022/02/20 07:35:51;;;;;;;2.70;2.40;;;4.20;99.90;;;;;;5012038;28;20227;-67
2022/02/20 07:38:17;;;;;;;2.43;2.23;;;4.20;99.90;;;;;;5011793;28;20183;-67
2022/02/20 07:40:42;;;;;;;2.90;2.67;;;4.10;99.90;;;;;;5011879;28;20196;-67
2022/02/20 07:43:08;;;;;;;2.57;2.30;;;4.10;99.90;;;;;;5011778;28;20180;-66
2022/02/20 07:45:33;;;;;;;2.50;2.30;;;4.20;99.90;;;;;;5011927;28;20172;-66
2022/02/20 07:48:00;;;;;;;3.20;2.40;;;4.20;99.90;;;;;;5011433;28;20207;-66
2022/02/20 07:50:31;;;;;;;2.63;2.43;;;4.30;99.90;;;;;;5011652;28;20714;-67
2022/02/20 07:52:58;;;;;;;2.30;1.97;;;4.30;99.90;;;;;;5012138;28;20739;-67
2022/02/20 07:55:24;;;;;;;2.77;2.57;;;4.40;99.90;;;;;;5011901;28;20411;-66
2022/02/20 07:57:50;;;;;;;2.87;2.67;;;4.40;99.90;;;;;;5011817;28;20897;-67
2022/02/20 08:00:19;;;;;;;2.30;2.10;;;4.50;99.90;;;;;;5011731;28;20435;-67
2022/02/20 08:02:45;;;;;;;2.23;2.00;;;4.50;99.90;;;;;;5011446;28;20418;-67
2022/02/20 08:05:11;;;;;;;1.77;1.67;;;4.30;99.90;;;;;;5011567;28;20446;-67
2022/02/20 08:07:37;;;;;;;2.60;1.97;;;4.40;99.90;;;;;;5011600;28;20491;-68
2022/02/20 08:10:04;;;;;;;1.67;1.57;;;4.50;99.90;;;;;;5011416;28;20219;-68
2022/02/20 08:12:29;;;;;;;2.10;1.90;;;4.60;99.90;;;;;;5011374;28;20592;-68
2022/02/20 08:14:55;;;;;;;2.73;2.10;;;4.60;99.90;;;;;;5011693;28;20407;-68
2022/02/20 08:17:22;;;;;;;1.60;1.50;;;4.50;99.90;;;;;;5011803;28;20169;-67
2022/02/20 08:19:47;;;;;;;1.83;1.73;;;4.60;99.90;;;;;;5011887;28;20192;-67
2022/02/20 08:22:13;;;;;;;1.70;1.60;;;4.60;99.90;;;;;;5011686;28;20956;-67
2022/02/20 08:24:38;;;;;;;3.03;2.10;;;4.60;99.90;;;;;;5011810;28;20710;-67
2022/02/20 08:27:04;;;;;;;2.60;2.43;;;4.60;99.90;;;;;;5011708;28;20222;-67
2022/02/20 08:29:29;;;;;;;2.10;1.80;;;4.60;99.90;;;;;;5011382;28;20713;-67
2022/02/20 08:31:57;;;;;;;2.13;1.47;;;4.80;99.90;;;;;;5014984;28;20173;-68
2022/02/20 08:34:23;;;;;;;1.50;1.40;;;4.60;99.90;;;;;;5015830;28;20236;-68
2022/02/20 08:36:48;;;;;;;1.80;1.70;;;4.60;99.90;;;;;;5016273;28;20445;-68
2022/02/20 08:39:13;;;;;;;1.93;1.77;;;4.80;99.90;;;;;;5016321;28;20411;-68
2022/02/20 08:41:39;;;;;;;2.03;1.40;;;4.80;99.90;;;;;;5015232;28;20499;-68
2022/02/20 08:44:05;;;;;;;1.90;1.80;;;4.70;99.90;;;;;;5014768;28;20184;-68
2022/02/20 08:46:31;;;;;;;2.00;1.57;;;4.70;99.90;;;;;;5014686;28;20203;-68
2022/02/20 08:48:56;;;;;;;2.60;0.90;;;4.90;99.90;;;;;;5014537;28;20458;-68
2022/02/20 08:51:25;;;;;;;2.63;2.10;;;4.90;99.90;;;;;;5014620;28;20188;-68
2022/02/20 08:53:50;;;;;;;1.70;1.60;;;5.00;99.90;;;;;;5014563;28;20646;-67
2022/02/20 08:56:16;;;;;;;3.23;2.60;;;4.90;99.90;;;;;;5014410;28;20502;-69
2022/02/20 08:58:41;;;;;;;1.27;1.17;;;5.10;99.90;;;;;;5014434;28;20169;-67
2022/02/20 09:01:07;;;;;;;1.60;1.40;;;5.10;99.90;;;;;;5014329;28;20307;-67
2022/02/20 09:03:32;;;;;;;2.17;1.90;;;5.30;99.90;;;;;;5014531;28;20183;-67
2022/02/20 09:05:58;;;;;;;1.43;1.33;;;5.60;99.90;;;;;;5014225;28;20182;-66
2022/02/20 09:08:24;;;;;;;2.50;1.70;;;5.50;99.90;;;;;;5014237;28;20284;-67
2022/02/20 09:10:49;;;;;;;1.83;1.60;;;5.50;99.90;;;;;;5014216;28;20200;-67
2022/02/20 09:13:16;;;;;;;1.70;1.60;;;5.50;99.90;;;;;;5013980;28;20230;-66
2022/02/20 09:15:42;;;;;;;1.83;1.60;;;5.60;99.90;;;;;;5014197;28;20164;-68
2022/02/20 09:18:07;;;;;;;1.73;1.60;;;5.50;99.90;;;;;;5014168;28;20975;-67
2022/02/20 09:20:33;;;;;;;1.83;1.27;;;5.80;99.90;;;;;;5014006;28;20250;-68
2022/02/20 09:22:58;;;;;;;2.43;1.70;;;5.50;99.90;;;;;;5013907;28;20655;-68
2022/02/20 09:25:24;;;;;;;2.37;2.10;;;5.50;99.90;;;;;;5013972;28;20557;-68
2022/02/20 09:27:50;;;;;;;1.80;1.70;;;5.40;99.90;;;;;;5013816;28;20216;-68
2022/02/20 09:30:16;;;;;;;1.90;1.77;;;5.40;99.90;;;;;;5013929;28;20458;-68
2022/02/20 09:32:43;;;;;;;2.47;1.77;;;5.40;99.90;;;;;;4996323;28;20278;-68
2022/02/20 09:35:09;;;;;;;2.27;1.43;;;5.40;99.90;;;;;;5013579;28;20643;-68
2022/02/20 09:37:35;;;;;;;3.07;1.80;;;5.60;99.90;;;;;;5013849;28;20405;-68
2022/02/20 09:40:01;;;;;;;2.20;2.00;;;5.80;99.90;;;;;;5013717;28;20518;-68
2022/02/20 09:42:27;;;;;;;3.90;2.23;;;5.90;99.90;;;;;;5013145;28;20164;-68
2022/02/20 09:44:52;;;;;;;2.73;1.60;;;5.80;99.90;;;;;;5013651;28;20623;-68
2022/02/20 09:47:25;;;;;;;2.00;1.80;;;5.80;99.90;;;;;;5013796;28;20411;-68
2022/02/20 09:49:54;;;;;;;1.97;1.80;;;5.70;99.90;;;;;;5013689;28;20196;-68
2022/02/20 09:52:20;;;;;;;1.70;1.53;;;5.70;99.90;;;;;;5013564;28;20423;-68
2022/02/20 09:54:45;;;;;;;3.80;2.13;;;5.60;99.90;;;;;;5014238;28;20434;-67
2022/02/20 09:57:11;;;;;;;2.60;1.93;;;5.50;99.90;;;;;;5013676;28;20164;-68
2022/02/20 09:59:36;;;;;;;1.90;1.80;;;5.70;99.90;;;;;;5013470;28;20316;-67
2022/02/20 10:02:16;;;;;;;2.60;2.07;;;5.80;99.90;;;;;;5013340;28;20168;-67
2022/02/20 10:04:47;;;;;;;2.70;1.97;;;5.80;99.90;;;;;;5013356;28;20173;-67
2022/02/20 10:07:33;;;;;;;2.30;1.80;;;5.90;99.90;;;;;;5013296;28;20407;-67
2022/02/20 10:10:06;;;;;;;2.23;2.03;;;5.70;99.90;;;;;;5013200;28;20952;-67
2022/02/20 10:12:32;;;;;;;1.87;1.63;;;5.60;99.90;;;;;;5013412;28;20408;-67
2022/02/20 10:14:58;;;;;;;1.53;1.43;;;5.50;99.90;;;;;;5013369;28;20765;-68
2022/02/20 10:17:27;;;;;;;2.40;2.20;;;5.70;99.90;;;;;;5013211;28;20244;-68
2022/02/20 10:20:02;;;;;;;1.93;1.70;;;5.60;99.90;;;;;;5012791;28;20427;-67
2022/02/20 10:22:33;;;;;;;2.90;2.70;;;5.70;99.90;;;;;;5012978;28;20407;-67
2022/02/20 10:25:04;;;;;;;2.83;2.00;;;5.70;99.90;;;;;;5012915;28;20415;-67
2022/02/20 10:27:30;;;;;;;3.03;2.73;;;5.70;99.90;;;;;;5012837;28;20512;-68
2022/02/20 10:30:26;;;;;;;2.80;2.60;;;5.90;99.90;;;;;;5012706;28;20502;-67
2022/02/20 10:33:20;;;;;;;2.80;2.27;;;5.80;99.90;;;;;;5012861;28;20407;-67
2022/02/20 10:35:47;;;;;;;3.30;2.77;;;5.90;99.90;;;;;;5012777;28;20438;-67
2022/02/20 10:38:18;;;;;;;3.10;2.60;;;5.90;99.90;;;;;;5012723;28;20407;-67
2022/02/20 10:40:47;;;;;;;6.30;3.30;;;6.10;99.90;;;;;;5012597;28;20455;-67
2022/02/20 10:43:26;;;;;;;2.87;2.37;;;6.00;99.90;;;;;;5012370;28;20882;-67
2022/02/20 10:46:16;;;;;;;3.63;2.27;;;6.10;99.90;;;;;;5012429;28;20513;-67
2022/02/20 10:48:49;;;;;;;2.50;2.30;;;6.30;99.90;;;;;;5012598;28;20838;-67
2022/02/20 10:51:17;;;;;;;2.80;2.60;;;6.20;99.90;;;;;;5012235;28;20510;-67
2022/02/20 10:53:48;;;;;;;5.10;3.40;;;6.30;99.90;;;;;;5011633;28;20486;-67
2022/02/20 10:56:14;;;;;;;1.87;1.60;;;6.40;99.90;;;;;;5012211;28;20399;-67
2022/02/20 10:58:44;;;;;;;3.53;1.83;;;6.50;99.90;;;;;;5012291;28;20411;-67
2022/02/20 11:01:26;;;;;;;2.50;2.10;;;6.40;99.90;;;;;;5012313;28;20291;-67
2022/02/20 11:04:00;;;;;;;1.90;1.80;;;6.60;99.90;;;;;;5012570;28;20411;-67
2022/02/20 11:06:29;;;;;;;2.97;2.30;;;6.60;99.90;;;;;;5012229;28;20771;-67
2022/02/20 11:08:55;;;;;;;2.27;2.07;;;6.70;99.90;;;;;;5012255;28;20458;-67
2022/02/20 11:11:37;;;;;;;3.53;1.63;;;6.70;99.90;;;;;;5012689;28;20457;-67
2022/02/20 11:14:08;;;;;;;1.73;1.50;;;6.70;99.90;;;;;;5012237;28;20494;-67
2022/02/20 11:16:38;;;;;;;2.90;1.70;;;6.70;99.90;;;;;;5012489;28;20403;-67
2022/02/20 11:19:05;;;;;;;1.67;1.57;;;6.60;99.90;;;;;;5012284;28;20596;-66
2022/02/20 11:21:42;;;;;;;3.77;2.40;;;6.50;99.90;;;;;;5012375;28;20431;-68
2022/02/20 11:24:09;;;;;;;4.00;1.93;;;6.60;99.90;;;;;;5012216;28;20411;-68
2022/02/20 11:26:37;;;;;;;2.33;2.10;;;6.70;99.90;;;;;;5011925;28;20411;-66
2022/02/20 11:29:03;;;;;;;3.20;2.00;;;6.80;99.90;;;;;;5011721;28;20958;-68
2022/02/20 11:31:29;;;;;;;1.43;1.33;;;6.70;99.90;;;;;;5011809;28;20443;-69
2022/02/20 11:33:55;;;;;;;1.63;1.53;;;6.50;99.90;;;;;;5011883;28;20773;-67
2022/02/20 11:36:27;;;;;;;2.77;2.57;;;6.50;99.90;;;;;;5011968;28;20488;-68
2022/02/20 11:39:12;;;;;;;1.83;1.67;;;6.50;99.90;;;;;;5012160;28;20418;-67
2022/02/20 11:41:40;;;;;;;1.23;1.13;;;6.50;99.90;;;;;;5012019;28;20399;-68
2022/02/20 11:44:15;;;;;;;3.13;1.73;;;6.40;99.90;;;;;;5012118;28;20447;-69
2022/02/20 11:46:52;;;;;;;3.70;1.83;;;6.20;99.90;;;;;;5011822;28;20997;-68
2022/02/20 11:49:28;;;;;;;1.43;1.33;;;6.10;99.90;;;;;;5011752;28;20557;-68
2022/02/20 11:52:11;;;;;;;1.43;1.30;;;5.90;99.90;;;;;;5011699;28;20949;-68
2022/02/20 11:54:38;;;;;;;1.27;1.10;;;6.00;99.90;;;;;;5011959;28;20403;-69
2022/02/20 11:57:15;;;;;;;1.50;1.40;;;5.90;99.90;;;;;;5012406;28;20822;-69
2022/02/20 11:59:41;;;;;;;1.20;1.10;;;5.90;99.90;;;;;;5011641;28;20435;-69
2022/02/20 12:02:12;;;;;;;1.67;1.57;;;5.90;99.90;;;;;;5011919;28;20991;-68
2022/02/20 12:05:06;;;;;;;1.67;1.27;;;5.90;99.90;;;;;;5011649;28;20419;-68
2022/02/20 12:07:42;;;;;;;1.37;1.20;;;5.80;99.90;;;;;;5015613;28;20407;-68
2022/02/20 12:10:20;;;;;;;1.37;1.10;;;5.60;99.90;;;;;;5015615;28;20506;-68
2022/02/20 12:12:56;;;;;;;1.33;1.23;;;5.60;99.90;;;;;;5016700;28;20403;-68
2022/02/20 12:15:28;;;;;;;1.40;1.30;;;5.50;99.90;;;;;;5015603;28;20407;-68
2022/02/20 12:18:01;;;;;;;2.30;1.77;;;5.50;99.90;;;;;;5015484;28;20461;-67
2022/02/20 12:20:47;;;;;;;1.60;1.50;;;5.50;99.90;;;;;;5015493;28;20442;-67
2022/02/20 12:23:24;;;;;;;3.50;1.60;;;5.40;99.90;;;;;;5015765;28;20881;-67
2022/02/20 12:25:50;;;;;;;1.73;1.63;;;5.30;99.90;;;;;;5015897;28;20804;-67
2022/02/20 12:28:29;;;;;;;2.33;1.90;;;5.40;99.90;;;;;;5016885;28;20461;-67
2022/02/20 12:30:55;;;;;;;1.27;1.17;;;5.40;99.90;;;;;;5017120;28;20273;-67
2022/02/20 12:33:30;;;;;;;2.03;1.83;;;5.20;99.90;;;;;;5015444;28;20416;-67
2022/02/20 12:35:57;;;;;;;3.23;1.97;;;5.20;99.90;;;;;;5015343;28;20175;-67
2022/02/20 12:38:22;;;;;;;1.73;1.57;;;5.10;99.90;;;;;;5015183;28;20411;-67
2022/02/20 12:40:48;;;;;;;1.67;1.57;;;5.10;99.90;;;;;;5014868;28;20481;-68
2022/02/20 12:43:13;;;;;;;4.77;2.60;;;5.20;99.90;;;;;;5014934;28;20172;-67
2022/02/20 12:45:44;;;;;;;5.70;2.03;;;5.00;99.90;;;;;;5014744;28;20234;-68
2022/02/20 12:48:14;;;;;;;4.13;3.73;;;5.10;99.90;;;;;;5014728;28;20291;-68
2022/02/20 12:50:49;;;;;;;2.03;1.83;;;5.10;99.90;;;;;;5014889;28;20435;-68
2022/02/20 12:53:16;;;;;;;2.70;1.43;;;5.10;99.90;;;;;;5014757;28;20406;-68
2022/02/20 12:55:43;;;;;;;1.30;1.20;;;5.10;99.90;;;;;;5014600;28;20827;-68
2022/02/20 12:58:11;;;;;;;4.83;2.00;;;5.10;99.90;;;;;;5014554;28;20787;-69